sensor_id;sensor_type;location;lat;lon;timestamp;P1;durP1;ratioP1;P2;durP2;ratioP2
6850;SDS011;3464;42.728;23.296;2023-10-13T00:00:54;25.70;;;11.30;;
6850;SDS011;3464;42.728;23.296;2023-10-13T00:03:21;22.90;;;11.07;;
6850;SDS011;3464;42.728;23.296;2023-10-13T00:05:47;24.93;;;11.37;;
6850;SDS011;3464;42.728;23.296;2023-10-13T00:08:14;27.67;;;11.27;;
6850;SDS011;3464;42.728;23.296;2023-10-13T00:10:41;23.10;;;10.77;;
6850;SDS011;3464;42.728;23.296;2023-10-13T00:13:07;27.10;;;11.13;;
6850;SDS011;3464;42.728;23.296;2023-10-13T00:15:39;24.90;;;11.00;;
6850;SDS011;3464;42.728;23.296;2023-10-13T00:18:06;23.77;;;11.40;;
6850;SDS011;3464;42.728;23.296;2023-10-13T00:20:33;23.83;;;10.73;;
6850;SDS011;3464;42.728;23.296;2023-10-13T00:23:00;24.67;;;10.57;;
6850;SDS011;3464;42.728;23.296;2023-10-13T00:25:27;21.83;;;9.30;;
6850;SDS011;3464;42.728;23.296;2023-10-13T00:27:53;21.87;;;9.90;;
6850;SDS011;3464;42.728;23.296;2023-10-13T00:30:20;29.00;;;10.67;;
6850;SDS011;3464;42.728;23.296;2023-10-13T00:32:48;22.23;;;10.00;;
6850;SDS011;3464;42.728;23.296;2023-10-13T00:35:20;27.20;;;10.97;;
6850;SDS011;3464;42.728;23.296;2023-10-13T00:37:51;20.13;;;9.70;;
6850;SDS011;3464;42.728;23.296;2023-10-13T00:40:21;28.93;;;10.70;;
6850;SDS011;3464;42.728;23.296;2023-10-13T00:42:53;21.80;;;10.80;;
6850;SDS011;3464;42.728;23.296;2023-10-13T00:45:19;27.27;;;11.40;;
6850;SDS011;3464;42.728;23.296;2023-10-13T00:47:49;29.37;;;11.93;;
6850;SDS011;3464;42.728;23.296;2023-10-13T00:50:16;24.03;;;10.70;;
6850;SDS011;3464;42.728;23.296;2023-10-13T00:52:42;27.20;;;11.57;;
6850;SDS011;3464;42.728;23.296;2023-10-13T00:55:09;23.93;;;11.40;;
6850;SDS011;3464;42.728;23.296;2023-10-13T00:57:35;26.20;;;10.47;;
6850;SDS011;3464;42.728;23.296;2023-10-13T01:00:02;21.87;;;11.23;;
6850;SDS011;3464;42.728;23.296;2023-10-13T01:02:29;22.63;;;10.80;;
6850;SDS011;3464;42.728;23.296;2023-10-13T01:05:04;23.90;;;11.23;;
6850;SDS011;3464;42.728;23.296;2023-10-13T01:07:31;24.83;;;11.23;;
6850;SDS011;3464;42.728;23.296;2023-10-13T01:09:58;21.53;;;10.93;;
6850;SDS011;3464;42.728;23.296;2023-10-13T01:12:24;20.10;;;9.90;;
6850;SDS011;3464;42.728;23.296;2023-10-13T01:14:51;24.63;;;11.83;;
6850;SDS011;3464;42.728;23.296;2023-10-13T01:17:18;25.10;;;10.93;;
6850;SDS011;3464;42.728;23.296;2023-10-13T01:19:44;22.33;;;10.70;;
6850;SDS011;3464;42.728;23.296;2023-10-13T01:22:11;23.53;;;10.93;;
6850;SDS011;3464;42.728;23.296;2023-10-13T01:24:38;23.90;;;10.90;;
6850;SDS011;3464;42.728;23.296;2023-10-13T01:27:06;22.83;;;11.17;;
6850;SDS011;3464;42.728;23.296;2023-10-13T01:29:37;26.20;;;11.20;;
6850;SDS011;3464;42.728;23.296;2023-10-13T01:32:03;26.83;;;10.83;;
6850;SDS011;3464;42.728;23.296;2023-10-13T01:34:30;21.27;;;11.07;;
6850;SDS011;3464;42.728;23.296;2023-10-13T01:36:57;27.63;;;12.33;;
6850;SDS011;3464;42.728;23.296;2023-10-13T01:39:24;21.43;;;10.60;;
6850;SDS011;3464;42.728;23.296;2023-10-13T01:41:53;25.77;;;11.97;;
6850;SDS011;3464;42.728;23.296;2023-10-13T01:44:21;21.07;;;11.00;;
6850;SDS011;3464;42.728;23.296;2023-10-13T01:46:48;24.13;;;10.80;;
6850;SDS011;3464;42.728;23.296;2023-10-13T01:49:15;25.23;;;11.43;;
6850;SDS011;3464;42.728;23.296;2023-10-13T01:51:42;22.53;;;11.17;;
6850;SDS011;3464;42.728;23.296;2023-10-13T01:54:08;23.73;;;10.77;;
6850;SDS011;3464;42.728;23.296;2023-10-13T01:56:36;25.17;;;10.93;;
6850;SDS011;3464;42.728;23.296;2023-10-13T01:59:02;23.07;;;11.23;;
6850;SDS011;3464;42.728;23.296;2023-10-13T02:01:33;30.03;;;12.00;;
6850;SDS011;3464;42.728;23.296;2023-10-13T02:03:59;20.53;;;10.83;;
6850;SDS011;3464;42.728;23.296;2023-10-13T02:06:31;21.97;;;11.00;;
6850;SDS011;3464;42.728;23.296;2023-10-13T02:09:00;28.40;;;11.77;;
6850;SDS011;3464;42.728;23.296;2023-10-13T02:11:29;33.60;;;12.70;;
6850;SDS011;3464;42.728;23.296;2023-10-13T02:13:55;23.83;;;11.37;;
6850;SDS011;3464;42.728;23.296;2023-10-13T02:16:22;20.37;;;10.60;;
6850;SDS011;3464;42.728;23.296;2023-10-13T02:18:48;24.03;;;11.50;;
6850;SDS011;3464;42.728;23.296;2023-10-13T02:21:15;23.63;;;11.23;;
6850;SDS011;3464;42.728;23.296;2023-10-13T02:23:42;20.93;;;11.30;;
6850;SDS011;3464;42.728;23.296;2023-10-13T02:26:11;22.40;;;11.70;;
6850;SDS011;3464;42.728;23.296;2023-10-13T02:28:37;26.60;;;11.20;;
6850;SDS011;3464;42.728;23.296;2023-10-13T02:31:04;28.23;;;11.83;;
6850;SDS011;3464;42.728;23.296;2023-10-13T02:33:30;22.00;;;11.50;;
6850;SDS011;3464;42.728;23.296;2023-10-13T02:35:57;27.43;;;12.43;;
6850;SDS011;3464;42.728;23.296;2023-10-13T02:38:23;25.70;;;11.90;;
6850;SDS011;3464;42.728;23.296;2023-10-13T02:41:01;23.80;;;11.97;;
6850;SDS011;3464;42.728;23.296;2023-10-13T02:43:33;25.70;;;11.50;;
6850;SDS011;3464;42.728;23.296;2023-10-13T02:46:00;26.40;;;10.73;;
6850;SDS011;3464;42.728;23.296;2023-10-13T02:48:27;25.73;;;10.20;;
6850;SDS011;3464;42.728;23.296;2023-10-13T02:50:58;22.53;;;11.40;;
6850;SDS011;3464;42.728;23.296;2023-10-13T02:53:26;25.20;;;9.17;;
6850;SDS011;3464;42.728;23.296;2023-10-13T02:55:54;22.07;;;8.67;;
6850;SDS011;3464;42.728;23.296;2023-10-13T02:58:19;25.97;;;8.63;;
6850;SDS011;3464;42.728;23.296;2023-10-13T03:00:46;21.40;;;10.10;;
6850;SDS011;3464;42.728;23.296;2023-10-13T03:03:13;21.43;;;10.90;;
6850;SDS011;3464;42.728;23.296;2023-10-13T03:05:40;19.97;;;9.67;;
6850;SDS011;3464;42.728;23.296;2023-10-13T03:08:06;23.53;;;10.77;;
6850;SDS011;3464;42.728;23.296;2023-10-13T03:10:33;19.40;;;10.20;;
6850;SDS011;3464;42.728;23.296;2023-10-13T03:12:59;30.00;;;13.30;;
6850;SDS011;3464;42.728;23.296;2023-10-13T03:15:26;21.90;;;11.63;;
6850;SDS011;3464;42.728;23.296;2023-10-13T03:17:54;28.40;;;11.50;;
6850;SDS011;3464;42.728;23.296;2023-10-13T03:20:21;28.37;;;12.37;;
6850;SDS011;3464;42.728;23.296;2023-10-13T03:22:48;26.33;;;11.30;;
6850;SDS011;3464;42.728;23.296;2023-10-13T03:25:16;27.17;;;12.13;;
6850;SDS011;3464;42.728;23.296;2023-10-13T03:27:43;34.27;;;11.50;;
6850;SDS011;3464;42.728;23.296;2023-10-13T03:30:29;24.23;;;11.77;;
6850;SDS011;3464;42.728;23.296;2023-10-13T03:32:56;28.20;;;11.83;;
6850;SDS011;3464;42.728;23.296;2023-10-13T03:35:22;24.27;;;12.20;;
6850;SDS011;3464;42.728;23.296;2023-10-13T03:37:51;27.73;;;12.30;;
6850;SDS011;3464;42.728;23.296;2023-10-13T03:40:17;23.30;;;12.17;;
6850;SDS011;3464;42.728;23.296;2023-10-13T03:43:00;28.83;;;12.90;;
6850;SDS011;3464;42.728;23.296;2023-10-13T03:45:31;26.77;;;12.40;;
6850;SDS011;3464;42.728;23.296;2023-10-13T03:47:59;25.93;;;12.43;;
6850;SDS011;3464;42.728;23.296;2023-10-13T03:50:26;26.10;;;12.27;;
6850;SDS011;3464;42.728;23.296;2023-10-13T03:52:56;28.73;;;11.17;;
6850;SDS011;3464;42.728;23.296;2023-10-13T03:55:25;23.83;;;11.10;;
6850;SDS011;3464;42.728;23.296;2023-10-13T03:57:53;24.80;;;11.80;;
6850;SDS011;3464;42.728;23.296;2023-10-13T04:00:20;22.73;;;11.67;;
6850;SDS011;3464;42.728;23.296;2023-10-13T04:02:47;32.70;;;11.80;;
6850;SDS011;3464;42.728;23.296;2023-10-13T04:05:13;30.33;;;12.50;;
6850;SDS011;3464;42.728;23.296;2023-10-13T04:07:40;32.10;;;12.90;;
6850;SDS011;3464;42.728;23.296;2023-10-13T04:10:07;26.00;;;12.60;;
6850;SDS011;3464;42.728;23.296;2023-10-13T04:12:36;27.03;;;12.83;;
6850;SDS011;3464;42.728;23.296;2023-10-13T04:15:12;26.43;;;12.20;;
6850;SDS011;3464;42.728;23.296;2023-10-13T04:17:40;26.20;;;14.07;;
6850;SDS011;3464;42.728;23.296;2023-10-13T04:20:07;31.10;;;14.17;;
6850;SDS011;3464;42.728;23.296;2023-10-13T04:22:37;31.20;;;14.70;;
6850;SDS011;3464;42.728;23.296;2023-10-13T04:25:11;37.60;;;15.87;;
6850;SDS011;3464;42.728;23.296;2023-10-13T04:27:51;30.97;;;13.90;;
6850;SDS011;3464;42.728;23.296;2023-10-13T04:30:20;29.33;;;13.43;;
6850;SDS011;3464;42.728;23.296;2023-10-13T04:32:50;25.97;;;13.37;;
6850;SDS011;3464;42.728;23.296;2023-10-13T04:35:17;31.50;;;13.10;;
6850;SDS011;3464;42.728;23.296;2023-10-13T04:37:44;32.90;;;13.67;;
6850;SDS011;3464;42.728;23.296;2023-10-13T04:40:29;29.53;;;12.50;;
6850;SDS011;3464;42.728;23.296;2023-10-13T04:42:56;33.27;;;14.20;;
6850;SDS011;3464;42.728;23.296;2023-10-13T04:45:23;36.70;;;14.87;;
6850;SDS011;3464;42.728;23.296;2023-10-13T04:48:05;33.10;;;13.10;;
6850;SDS011;3464;42.728;23.296;2023-10-13T04:50:37;30.03;;;13.90;;
6850;SDS011;3464;42.728;23.296;2023-10-13T04:53:04;40.40;;;14.93;;
6850;SDS011;3464;42.728;23.296;2023-10-13T04:55:33;32.10;;;12.90;;
6850;SDS011;3464;42.728;23.296;2023-10-13T04:57:58;30.83;;;12.07;;
6850;SDS011;3464;42.728;23.296;2023-10-13T05:00:27;36.07;;;12.83;;
6850;SDS011;3464;42.728;23.296;2023-10-13T05:02:58;30.63;;;12.33;;
6850;SDS011;3464;42.728;23.296;2023-10-13T05:05:32;34.13;;;12.17;;
6850;SDS011;3464;42.728;23.296;2023-10-13T05:08:04;23.80;;;10.20;;
6850;SDS011;3464;42.728;23.296;2023-10-13T05:10:37;26.07;;;10.03;;
6850;SDS011;3464;42.728;23.296;2023-10-13T05:13:09;28.10;;;10.47;;
6850;SDS011;3464;42.728;23.296;2023-10-13T05:15:44;22.53;;;9.50;;
6850;SDS011;3464;42.728;23.296;2023-10-13T05:18:15;26.60;;;8.47;;
6850;SDS011;3464;42.728;23.296;2023-10-13T05:20:47;21.73;;;9.60;;
6850;SDS011;3464;42.728;23.296;2023-10-13T05:23:19;29.30;;;10.07;;
6850;SDS011;3464;42.728;23.296;2023-10-13T05:25:51;29.20;;;9.97;;
6850;SDS011;3464;42.728;23.296;2023-10-13T05:28:23;30.00;;;10.87;;
6850;SDS011;3464;42.728;23.296;2023-10-13T05:30:58;26.50;;;10.13;;
6850;SDS011;3464;42.728;23.296;2023-10-13T05:33:27;29.90;;;10.20;;
6850;SDS011;3464;42.728;23.296;2023-10-13T05:35:59;28.90;;;9.77;;
6850;SDS011;3464;42.728;23.296;2023-10-13T05:38:31;27.47;;;9.90;;
6850;SDS011;3464;42.728;23.296;2023-10-13T05:41:04;23.33;;;9.33;;
6850;SDS011;3464;42.728;23.296;2023-10-13T05:43:36;27.00;;;9.77;;
6850;SDS011;3464;42.728;23.296;2023-10-13T05:46:08;24.63;;;9.00;;
6850;SDS011;3464;42.728;23.296;2023-10-13T05:48:40;21.80;;;8.50;;
6850;SDS011;3464;42.728;23.296;2023-10-13T05:51:07;26.10;;;8.43;;
6850;SDS011;3464;42.728;23.296;2023-10-13T05:53:40;23.03;;;7.50;;
6850;SDS011;3464;42.728;23.296;2023-10-13T05:56:23;20.73;;;8.17;;
6850;SDS011;3464;42.728;23.296;2023-10-13T05:58:55;25.93;;;7.93;;
6850;SDS011;3464;42.728;23.296;2023-10-13T06:01:27;25.77;;;10.07;;
6850;SDS011;3464;42.728;23.296;2023-10-13T06:03:59;34.50;;;8.17;;
6850;SDS011;3464;42.728;23.296;2023-10-13T06:06:31;27.73;;;10.40;;
6850;SDS011;3464;42.728;23.296;2023-10-13T06:09:03;30.23;;;9.70;;
6850;SDS011;3464;42.728;23.296;2023-10-13T06:11:35;20.30;;;9.60;;
6850;SDS011;3464;42.728;23.296;2023-10-13T06:14:08;28.10;;;9.90;;
6850;SDS011;3464;42.728;23.296;2023-10-13T06:16:39;25.07;;;9.90;;
6850;SDS011;3464;42.728;23.296;2023-10-13T06:19:11;31.67;;;10.70;;
6850;SDS011;3464;42.728;23.296;2023-10-13T06:21:44;28.77;;;11.20;;
6850;SDS011;3464;42.728;23.296;2023-10-13T06:24:15;26.50;;;10.67;;
6850;SDS011;3464;42.728;23.296;2023-10-13T06:26:47;23.30;;;10.67;;
6850;SDS011;3464;42.728;23.296;2023-10-13T06:29:19;25.90;;;11.40;;
6850;SDS011;3464;42.728;23.296;2023-10-13T06:31:46;23.70;;;11.23;;
6850;SDS011;3464;42.728;23.296;2023-10-13T06:34:13;33.30;;;11.97;;
6850;SDS011;3464;42.728;23.296;2023-10-13T06:36:40;23.10;;;11.60;;
6850;SDS011;3464;42.728;23.296;2023-10-13T06:39:07;29.33;;;11.60;;
6850;SDS011;3464;42.728;23.296;2023-10-13T06:41:38;23.07;;;11.77;;
6850;SDS011;3464;42.728;23.296;2023-10-13T06:44:06;34.30;;;12.40;;
6850;SDS011;3464;42.728;23.296;2023-10-13T06:46:32;31.90;;;10.83;;
6850;SDS011;3464;42.728;23.296;2023-10-13T06:48:59;27.20;;;11.80;;
6850;SDS011;3464;42.728;23.296;2023-10-13T06:51:25;22.90;;;10.80;;
6850;SDS011;3464;42.728;23.296;2023-10-13T06:53:56;27.20;;;11.50;;
6850;SDS011;3464;42.728;23.296;2023-10-13T06:56:23;27.60;;;12.27;;
6850;SDS011;3464;42.728;23.296;2023-10-13T06:58:54;34.93;;;13.03;;
6850;SDS011;3464;42.728;23.296;2023-10-13T07:01:21;37.80;;;14.63;;
6850;SDS011;3464;42.728;23.296;2023-10-13T07:03:47;37.13;;;14.93;;
6850;SDS011;3464;42.728;23.296;2023-10-13T07:06:15;35.23;;;14.07;;
6850;SDS011;3464;42.728;23.296;2023-10-13T07:08:41;39.50;;;17.00;;
6850;SDS011;3464;42.728;23.296;2023-10-13T07:11:08;41.23;;;19.40;;
6850;SDS011;3464;42.728;23.296;2023-10-13T07:13:34;41.23;;;22.27;;
6850;SDS011;3464;42.728;23.296;2023-10-13T07:16:02;34.37;;;19.17;;
6850;SDS011;3464;42.728;23.296;2023-10-13T07:18:31;40.17;;;23.00;;
6850;SDS011;3464;42.728;23.296;2023-10-13T07:20:57;37.77;;;23.40;;
6850;SDS011;3464;42.728;23.296;2023-10-13T07:23:24;43.60;;;22.40;;
6850;SDS011;3464;42.728;23.296;2023-10-13T07:25:51;41.37;;;23.43;;
6850;SDS011;3464;42.728;23.296;2023-10-13T07:28:22;41.70;;;22.30;;
6850;SDS011;3464;42.728;23.296;2023-10-13T07:30:48;42.70;;;19.43;;
6850;SDS011;3464;42.728;23.296;2023-10-13T07:33:16;40.23;;;18.50;;
6850;SDS011;3464;42.728;23.296;2023-10-13T07:35:42;37.17;;;17.70;;
6850;SDS011;3464;42.728;23.296;2023-10-13T07:38:09;34.80;;;17.37;;
6850;SDS011;3464;42.728;23.296;2023-10-13T07:40:36;32.43;;;16.90;;
6850;SDS011;3464;42.728;23.296;2023-10-13T07:43:05;33.27;;;14.90;;
6850;SDS011;3464;42.728;23.296;2023-10-13T07:45:35;34.20;;;15.03;;
6850;SDS011;3464;42.728;23.296;2023-10-13T07:48:04;34.63;;;15.87;;
6850;SDS011;3464;42.728;23.296;2023-10-13T07:50:31;37.10;;;15.87;;
6850;SDS011;3464;42.728;23.296;2023-10-13T07:52:57;30.30;;;16.40;;
6850;SDS011;3464;42.728;23.296;2023-10-13T07:55:25;32.37;;;16.00;;
6850;SDS011;3464;42.728;23.296;2023-10-13T07:57:51;32.70;;;15.73;;
6850;SDS011;3464;42.728;23.296;2023-10-13T08:00:20;31.10;;;15.43;;
6850;SDS011;3464;42.728;23.296;2023-10-13T08:02:59;32.60;;;16.70;;
6850;SDS011;3464;42.728;23.296;2023-10-13T08:05:31;33.70;;;17.00;;
6850;SDS011;3464;42.728;23.296;2023-10-13T08:08:03;38.43;;;16.60;;
6850;SDS011;3464;42.728;23.296;2023-10-13T08:10:35;32.50;;;16.27;;
6850;SDS011;3464;42.728;23.296;2023-10-13T08:13:01;35.13;;;16.40;;
6850;SDS011;3464;42.728;23.296;2023-10-13T08:15:28;29.60;;;16.23;;
6850;SDS011;3464;42.728;23.296;2023-10-13T08:17:58;36.33;;;18.33;;
6850;SDS011;3464;42.728;23.296;2023-10-13T08:20:24;33.20;;;19.07;;
6850;SDS011;3464;42.728;23.296;2023-10-13T08:22:51;37.00;;;18.20;;
6850;SDS011;3464;42.728;23.296;2023-10-13T08:25:17;37.17;;;18.30;;
6850;SDS011;3464;42.728;23.296;2023-10-13T08:27:47;41.93;;;19.47;;
6850;SDS011;3464;42.728;23.296;2023-10-13T08:30:15;45.87;;;19.10;;
6850;SDS011;3464;42.728;23.296;2023-10-13T08:32:47;47.13;;;18.33;;
6850;SDS011;3464;42.728;23.296;2023-10-13T08:35:19;38.00;;;17.20;;
6850;SDS011;3464;42.728;23.296;2023-10-13T08:37:48;32.57;;;17.43;;
6850;SDS011;3464;42.728;23.296;2023-10-13T08:40:31;38.43;;;16.47;;
6850;SDS011;3464;42.728;23.296;2023-10-13T08:43:03;33.30;;;18.97;;
6850;SDS011;3464;42.728;23.296;2023-10-13T08:45:37;49.20;;;17.90;;
6850;SDS011;3464;42.728;23.296;2023-10-13T08:48:18;40.80;;;17.33;;
6850;SDS011;3464;42.728;23.296;2023-10-13T08:50:45;39.90;;;17.20;;
6850;SDS011;3464;42.728;23.296;2023-10-13T08:53:23;41.73;;;17.57;;
6850;SDS011;3464;42.728;23.296;2023-10-13T08:55:52;38.87;;;15.80;;
6850;SDS011;3464;42.728;23.296;2023-10-13T08:58:27;33.07;;;15.90;;
6850;SDS011;3464;42.728;23.296;2023-10-13T09:00:54;35.40;;;15.77;;
6850;SDS011;3464;42.728;23.296;2023-10-13T09:03:21;39.40;;;15.33;;
6850;SDS011;3464;42.728;23.296;2023-10-13T09:05:54;29.20;;;14.13;;
6850;SDS011;3464;42.728;23.296;2023-10-13T09:08:27;32.87;;;15.40;;
6850;SDS011;3464;42.728;23.296;2023-10-13T09:10:57;33.47;;;14.77;;
6850;SDS011;3464;42.728;23.296;2023-10-13T09:13:23;35.90;;;14.57;;
6850;SDS011;3464;42.728;23.296;2023-10-13T09:16:13;31.80;;;14.53;;
6850;SDS011;3464;42.728;23.296;2023-10-13T09:19:02;34.13;;;14.67;;
6850;SDS011;3464;42.728;23.296;2023-10-13T09:24:14;29.00;;;14.37;;
6850;SDS011;3464;42.728;23.296;2023-10-13T09:26:42;32.73;;;13.90;;
6850;SDS011;3464;42.728;23.296;2023-10-13T09:29:16;29.73;;;12.53;;
6850;SDS011;3464;42.728;23.296;2023-10-13T09:34:33;29.53;;;11.23;;
6850;SDS011;3464;42.728;23.296;2023-10-13T09:37:04;32.03;;;12.30;;
6850;SDS011;3464;42.728;23.296;2023-10-13T09:39:33;30.80;;;11.37;;
6850;SDS011;3464;42.728;23.296;2023-10-13T09:42:00;27.87;;;11.83;;
6850;SDS011;3464;42.728;23.296;2023-10-13T09:44:26;27.00;;;12.17;;
6850;SDS011;3464;42.728;23.296;2023-10-13T09:46:53;30.10;;;11.33;;
6850;SDS011;3464;42.728;23.296;2023-10-13T09:49:20;24.60;;;11.63;;
6850;SDS011;3464;42.728;23.296;2023-10-13T09:51:49;29.50;;;10.77;;
6850;SDS011;3464;42.728;23.296;2023-10-13T09:54:22;31.57;;;10.60;;
6850;SDS011;3464;42.728;23.296;2023-10-13T09:56:55;26.60;;;9.73;;
6850;SDS011;3464;42.728;23.296;2023-10-13T09:59:27;27.30;;;9.70;;
6850;SDS011;3464;42.728;23.296;2023-10-13T10:01:51;27.57;;;9.70;;
6850;SDS011;3464;42.728;23.296;2023-10-13T10:04:25;22.30;;;8.77;;
6850;SDS011;3464;42.728;23.296;2023-10-13T10:06:53;28.73;;;8.00;;
6850;SDS011;3464;42.728;23.296;2023-10-13T10:09:26;46.47;;;11.93;;
6850;SDS011;3464;42.728;23.296;2023-10-13T10:12:01;63.30;;;16.20;;
6850;SDS011;3464;42.728;23.296;2023-10-13T10:15:33;18.70;;;7.90;;
6850;SDS011;3464;42.728;23.296;2023-10-13T10:17:11;25.77;;;8.40;;
6850;SDS011;3464;42.728;23.296;2023-10-13T10:22:11;24.73;;;8.17;;
6850;SDS011;3464;42.728;23.296;2023-10-13T10:24:42;22.37;;;7.80;;
6850;SDS011;3464;42.728;23.296;2023-10-13T10:27:10;24.10;;;7.63;;
6850;SDS011;3464;42.728;23.296;2023-10-13T10:29:48;19.40;;;6.93;;
6850;SDS011;3464;42.728;23.296;2023-10-13T10:34:39;19.20;;;6.70;;
6850;SDS011;3464;42.728;23.296;2023-10-13T10:37:06;28.10;;;9.30;;
6850;SDS011;3464;42.728;23.296;2023-10-13T10:39:35;22.73;;;7.20;;
6850;SDS011;3464;42.728;23.296;2023-10-13T10:42:09;21.93;;;7.27;;
6850;SDS011;3464;42.728;23.296;2023-10-13T10:44:40;15.50;;;5.20;;
6850;SDS011;3464;42.728;23.296;2023-10-13T10:49:37;21.20;;;6.30;;
6850;SDS011;3464;42.728;23.296;2023-10-13T10:52:03;16.63;;;5.27;;
6850;SDS011;3464;42.728;23.296;2023-10-13T10:54:30;15.30;;;4.90;;
6850;SDS011;3464;42.728;23.296;2023-10-13T10:56:58;16.63;;;5.00;;
6850;SDS011;3464;42.728;23.296;2023-10-13T10:59:24;18.10;;;6.47;;
6850;SDS011;3464;42.728;23.296;2023-10-13T11:01:50;23.47;;;8.43;;
6850;SDS011;3464;42.728;23.296;2023-10-13T11:04:17;26.00;;;8.53;;
6850;SDS011;3464;42.728;23.296;2023-10-13T11:06:45;17.10;;;6.73;;
6850;SDS011;3464;42.728;23.296;2023-10-13T11:09:11;18.47;;;5.30;;
6850;SDS011;3464;42.728;23.296;2023-10-13T11:11:43;17.23;;;4.03;;
6850;SDS011;3464;42.728;23.296;2023-10-13T11:14:09;18.63;;;5.10;;
6850;SDS011;3464;42.728;23.296;2023-10-13T11:16:45;19.33;;;5.90;;
6850;SDS011;3464;42.728;23.296;2023-10-13T11:19:11;20.70;;;5.57;;
6850;SDS011;3464;42.728;23.296;2023-10-13T11:21:38;17.43;;;6.67;;
6850;SDS011;3464;42.728;23.296;2023-10-13T11:24:05;15.30;;;3.83;;
6850;SDS011;3464;42.728;23.296;2023-10-13T11:26:34;20.87;;;6.77;;
6850;SDS011;3464;42.728;23.296;2023-10-13T11:29:01;15.20;;;3.50;;
6850;SDS011;3464;42.728;23.296;2023-10-13T11:34:34;15.00;;;4.20;;
6850;SDS011;3464;42.728;23.296;2023-10-13T11:37:02;15.17;;;3.50;;
6850;SDS011;3464;42.728;23.296;2023-10-13T11:39:28;11.47;;;3.50;;
6850;SDS011;3464;42.728;23.296;2023-10-13T11:41:56;12.20;;;3.23;;
6850;SDS011;3464;42.728;23.296;2023-10-13T11:53:51;13.27;;;3.73;;
6850;SDS011;3464;42.728;23.296;2023-10-13T11:56:40;12.10;;;3.27;;
6850;SDS011;3464;42.728;23.296;2023-10-13T12:01:53;13.30;;;3.93;;
6850;SDS011;3464;42.728;23.296;2023-10-13T12:04:26;15.13;;;3.20;;
6850;SDS011;3464;42.728;23.296;2023-10-13T12:06:58;11.97;;;3.40;;
6850;SDS011;3464;42.728;23.296;2023-10-13T12:09:28;15.90;;;3.27;;
6850;SDS011;3464;42.728;23.296;2023-10-13T12:11:55;17.37;;;4.30;;
6850;SDS011;3464;42.728;23.296;2023-10-13T12:14:21;11.90;;;3.40;;
6850;SDS011;3464;42.728;23.296;2023-10-13T12:17:06;12.50;;;3.20;;
6850;SDS011;3464;42.728;23.296;2023-10-13T12:19:38;11.73;;;3.37;;
6850;SDS011;3464;42.728;23.296;2023-10-13T12:22:08;17.30;;;3.50;;
6850;SDS011;3464;42.728;23.296;2023-10-13T12:24:41;12.50;;;3.27;;
6850;SDS011;3464;42.728;23.296;2023-10-13T12:27:10;15.13;;;3.67;;
6850;SDS011;3464;42.728;23.296;2023-10-13T12:29:43;18.60;;;4.00;;
6850;SDS011;3464;42.728;23.296;2023-10-13T12:32:10;18.57;;;4.20;;
6850;SDS011;3464;42.728;23.296;2023-10-13T12:34:37;11.63;;;3.50;;
6850;SDS011;3464;42.728;23.296;2023-10-13T12:37:09;12.40;;;3.57;;
6850;SDS011;3464;42.728;23.296;2023-10-13T12:39:37;13.07;;;4.17;;
6850;SDS011;3464;42.728;23.296;2023-10-13T12:42:09;13.20;;;3.17;;
6850;SDS011;3464;42.728;23.296;2023-10-13T12:44:51;14.30;;;3.50;;
6850;SDS011;3464;42.728;23.296;2023-10-13T12:47:23;13.13;;;4.10;;
6850;SDS011;3464;42.728;23.296;2023-10-13T12:49:56;16.20;;;3.53;;
6850;SDS011;3464;42.728;23.296;2023-10-13T12:52:23;13.07;;;3.63;;
6850;SDS011;3464;42.728;23.296;2023-10-13T12:54:54;13.50;;;3.70;;
6850;SDS011;3464;42.728;23.296;2023-10-13T12:57:25;13.47;;;3.70;;
6850;SDS011;3464;42.728;23.296;2023-10-13T12:59:54;14.30;;;3.70;;
6850;SDS011;3464;42.728;23.296;2023-10-13T13:02:20;13.03;;;3.80;;
6850;SDS011;3464;42.728;23.296;2023-10-13T13:04:47;18.23;;;3.80;;
6850;SDS011;3464;42.728;23.296;2023-10-13T13:07:14;19.53;;;3.80;;
6850;SDS011;3464;42.728;23.296;2023-10-13T13:09:41;12.87;;;3.50;;
6850;SDS011;3464;42.728;23.296;2023-10-13T13:12:07;14.13;;;3.80;;
6850;SDS011;3464;42.728;23.296;2023-10-13T13:14:51;16.43;;;4.20;;
6850;SDS011;3464;42.728;23.296;2023-10-13T13:17:18;15.03;;;3.80;;
6850;SDS011;3464;42.728;23.296;2023-10-13T13:19:45;13.57;;;3.90;;
6850;SDS011;3464;42.728;23.296;2023-10-13T13:22:12;13.17;;;3.90;;
6850;SDS011;3464;42.728;23.296;2023-10-13T13:24:38;13.07;;;4.03;;
6850;SDS011;3464;42.728;23.296;2023-10-13T13:27:15;12.27;;;3.90;;
6850;SDS011;3464;42.728;23.296;2023-10-13T13:29:41;15.73;;;4.03;;
6850;SDS011;3464;42.728;23.296;2023-10-13T13:32:07;15.37;;;3.67;;
6850;SDS011;3464;42.728;23.296;2023-10-13T13:34:34;12.40;;;3.50;;
6850;SDS011;3464;42.728;23.296;2023-10-13T13:37:01;14.83;;;4.17;;
6850;SDS011;3464;42.728;23.296;2023-10-13T13:39:28;15.00;;;3.67;;
6850;SDS011;3464;42.728;23.296;2023-10-13T13:41:55;13.40;;;3.27;;
6850;SDS011;3464;42.728;23.296;2023-10-13T13:44:24;17.50;;;3.60;;
6850;SDS011;3464;42.728;23.296;2023-10-13T13:46:50;14.60;;;3.53;;
6850;SDS011;3464;42.728;23.296;2023-10-13T13:49:17;16.20;;;4.00;;
6850;SDS011;3464;42.728;23.296;2023-10-13T13:51:44;13.83;;;3.60;;
6850;SDS011;3464;42.728;23.296;2023-10-13T13:54:13;15.93;;;3.70;;
6850;SDS011;3464;42.728;23.296;2023-10-13T13:56:40;13.70;;;3.87;;
6850;SDS011;3464;42.728;23.296;2023-10-13T13:59:06;14.50;;;3.47;;
6850;SDS011;3464;42.728;23.296;2023-10-13T14:01:35;15.73;;;3.70;;
6850;SDS011;3464;42.728;23.296;2023-10-13T14:04:02;13.60;;;3.77;;
6850;SDS011;3464;42.728;23.296;2023-10-13T14:06:29;16.97;;;3.90;;
6850;SDS011;3464;42.728;23.296;2023-10-13T14:08:56;15.70;;;4.00;;
6850;SDS011;3464;42.728;23.296;2023-10-13T14:11:23;16.67;;;4.53;;
6850;SDS011;3464;42.728;23.296;2023-10-13T14:13:55;13.83;;;4.07;;
6850;SDS011;3464;42.728;23.296;2023-10-13T14:16:22;17.10;;;4.00;;
6850;SDS011;3464;42.728;23.296;2023-10-13T14:18:50;13.53;;;3.60;;
6850;SDS011;3464;42.728;23.296;2023-10-13T14:21:16;15.53;;;4.10;;
6850;SDS011;3464;42.728;23.296;2023-10-13T14:23:47;16.23;;;4.47;;
6850;SDS011;3464;42.728;23.296;2023-10-13T14:26:13;16.00;;;4.37;;
6850;SDS011;3464;42.728;23.296;2023-10-13T14:28:40;15.30;;;3.67;;
6850;SDS011;3464;42.728;23.296;2023-10-13T14:31:21;14.60;;;4.40;;
6850;SDS011;3464;42.728;23.296;2023-10-13T14:33:48;16.60;;;4.30;;
6850;SDS011;3464;42.728;23.296;2023-10-13T14:36:14;19.47;;;4.77;;
6850;SDS011;3464;42.728;23.296;2023-10-13T14:38:41;20.70;;;5.10;;
6850;SDS011;3464;42.728;23.296;2023-10-13T14:41:07;20.57;;;4.90;;
6850;SDS011;3464;42.728;23.296;2023-10-13T14:43:34;16.80;;;4.30;;
6850;SDS011;3464;42.728;23.296;2023-10-13T14:46:01;19.03;;;5.50;;
6850;SDS011;3464;42.728;23.296;2023-10-13T14:48:28;17.63;;;4.63;;
6850;SDS011;3464;42.728;23.296;2023-10-13T14:50:55;17.17;;;4.80;;
6850;SDS011;3464;42.728;23.296;2023-10-13T14:53:22;14.60;;;4.03;;
6850;SDS011;3464;42.728;23.296;2023-10-13T14:55:49;16.07;;;4.27;;
6850;SDS011;3464;42.728;23.296;2023-10-13T14:58:16;18.97;;;4.70;;
6850;SDS011;3464;42.728;23.296;2023-10-13T15:00:42;17.77;;;4.13;;
6850;SDS011;3464;42.728;23.296;2023-10-13T15:03:11;18.57;;;4.47;;
6850;SDS011;3464;42.728;23.296;2023-10-13T15:05:39;18.33;;;4.60;;
6850;SDS011;3464;42.728;23.296;2023-10-13T15:08:09;21.80;;;4.67;;
6850;SDS011;3464;42.728;23.296;2023-10-13T15:10:37;15.43;;;4.13;;
6850;SDS011;3464;42.728;23.296;2023-10-13T15:13:04;15.30;;;4.27;;
6850;SDS011;3464;42.728;23.296;2023-10-13T15:15:30;25.27;;;4.10;;
6850;SDS011;3464;42.728;23.296;2023-10-13T15:17:57;14.13;;;3.93;;
6850;SDS011;3464;42.728;23.296;2023-10-13T15:20:23;17.83;;;4.70;;